createdAt,value
2022-09-23T00:01:19.276Z,9.20
2022-09-23T00:03:47.276Z,9.10
2022-09-23T00:06:17.534Z,9.10
2022-09-23T00:08:44.581Z,9.10
2022-09-23T00:11:17.297Z,9.10
2022-09-23T00:13:46.018Z,9.00
2022-09-23T00:16:16.264Z,9.00
2022-09-23T00:18:44.216Z,9.00
2022-09-23T00:21:14.598Z,8.90
2022-09-23T00:23:43.344Z,9.00
2022-09-23T00:26:13.181Z,8.90
2022-09-23T00:28:40.771Z,8.90
2022-09-23T00:31:14.024Z,8.90
2022-09-23T00:33:41.889Z,8.90
2022-09-23T00:36:11.612Z,8.80
2022-09-23T00:38:39.411Z,8.80
2022-09-23T00:41:06.815Z,8.80
2022-09-23T00:43:43.191Z,8.80
2022-09-23T00:46:14.881Z,8.70
2022-09-23T00:48:43.972Z,8.70
2022-09-23T00:51:17.973Z,8.70
2022-09-23T00:53:48.606Z,8.70
2022-09-23T00:56:16.578Z,8.70
2022-09-23T00:58:46.604Z,8.60
2022-09-23T01:01:14.595Z,8.60
2022-09-23T01:03:46.592Z,8.60
2022-09-23T01:06:14.822Z,8.50
2022-09-23T01:08:45.057Z,8.50
2022-09-23T01:11:31.669Z,8.50
2022-09-23T01:14:19.976Z,8.50
2022-09-23T01:17:13.873Z,8.50
2022-09-23T01:20:14.883Z,8.50
2022-09-23T01:22:53.765Z,8.40
2022-09-23T01:26:00.028Z,8.40
2022-09-23T01:28:33.484Z,8.30
2022-09-23T01:31:45.087Z,8.30
2022-09-23T01:34:36.390Z,8.30
2022-09-23T01:37:32.089Z,8.20
2022-09-23T01:40:24.059Z,8.20
2022-09-23T01:43:01.406Z,8.20
2022-09-23T01:45:34.121Z,8.10
2022-09-23T01:48:10.522Z,8.10
2022-09-23T01:50:58.396Z,8.00
2022-09-23T01:53:46.160Z,8.00
2022-09-23T01:56:22.421Z,8.00
2022-09-23T01:58:56.106Z,8.00
2022-09-23T02:02:07.992Z,8.00
2022-09-23T02:04:50.550Z,8.10
2022-09-23T02:07:20.480Z,8.10
2022-09-23T02:09:56.286Z,8.10
2022-09-23T02:12:28.654Z,8.10
2022-09-23T02:15:07.410Z,8.10
2022-09-23T02:17:52.313Z,8.10
2022-09-23T02:20:29.929Z,8.10
2022-09-23T02:23:11.592Z,8.20
2022-09-23T02:25:50.546Z,8.20
2022-09-23T02:28:43.419Z,8.20
2022-09-23T02:31:31.573Z,8.30
2022-09-23T02:34:43.178Z,8.30
2022-09-23T02:37:23.380Z,8.40
2022-09-23T02:40:12.813Z,8.40
2022-09-23T02:43:05.382Z,8.50
2022-09-23T02:45:33.843Z,8.50
2022-09-23T02:48:18.774Z,8.50
2022-09-23T02:50:47.838Z,8.60
2022-09-23T02:53:17.860Z,8.60
2022-09-23T02:55:45.130Z,8.50
2022-09-23T02:58:14.387Z,8.60
2022-09-23T03:01:24.365Z,8.60
2022-09-23T03:03:54.380Z,8.60
2022-09-23T03:06:27.465Z,8.60
2022-09-23T03:09:05.927Z,8.60
2022-09-23T03:11:38.735Z,8.60
2022-09-23T03:14:22.101Z,8.60
2022-09-23T03:16:58.406Z,8.60
2022-09-23T03:19:42.881Z,8.70
2022-09-23T03:22:21.107Z,8.70
2022-09-23T03:24:53.849Z,8.60
2022-09-23T03:27:25.782Z,8.60
2022-09-23T03:29:54.919Z,8.60
2022-09-23T03:32:24.876Z,8.60
2022-09-23T03:34:55.161Z,8.60
2022-09-23T03:37:33.752Z,8.60
2022-09-23T03:40:27.945Z,8.60
2022-09-23T03:42:57.318Z,8.60
2022-09-23T03:45:30.069Z,8.60
2022-09-23T03:47:57.338Z,8.60
2022-09-23T03:50:24.716Z,8.50
2022-09-23T03:52:51.934Z,8.50
2022-09-23T03:55:20.136Z,8.50
2022-09-23T03:57:47.657Z,8.50
2022-09-23T04:00:15.265Z,8.50
2022-09-23T04:02:42.413Z,8.50
2022-09-23T04:05:11.370Z,8.50
2022-09-23T04:07:38.597Z,8.50
2022-09-23T04:10:06.971Z,8.50
2022-09-23T04:12:34.068Z,8.60
2022-09-23T04:15:01.089Z,8.60
2022-09-23T04:17:28.185Z,8.60
2022-09-23T04:19:55.229Z,8.60
2022-09-23T04:22:22.367Z,8.60
2022-09-23T04:24:49.451Z,8.50
2022-09-23T04:27:16.625Z,8.50
2022-09-23T04:29:43.745Z,8.50
2022-09-23T04:32:11.073Z,8.50
2022-09-23T04:34:38.100Z,8.50
2022-09-23T04:37:05.186Z,8.40
2022-09-23T04:39:32.407Z,8.40
2022-09-23T04:41:59.802Z,8.40
2022-09-23T04:44:28.415Z,8.30
2022-09-23T04:46:55.530Z,8.30
2022-09-23T04:49:23.655Z,8.30
2022-09-23T04:51:50.739Z,8.30
2022-09-23T04:54:17.940Z,8.30
2022-09-23T04:56:45.029Z,8.20
2022-09-23T04:59:13.024Z,8.20
2022-09-23T05:01:40.277Z,8.20
2022-09-23T05:04:10.239Z,8.10
2022-09-23T05:06:37.377Z,8.10
2022-09-23T05:09:07.355Z,8.00
2022-09-23T05:11:34.796Z,7.90
2022-09-23T05:14:02.346Z,7.90
2022-09-23T05:16:29.889Z,7.90
2022-09-23T05:18:58.041Z,7.80
2022-09-23T05:21:30.354Z,7.80
2022-09-23T05:24:01.551Z,7.70
2022-09-23T05:26:31.005Z,7.70
2022-09-23T05:28:59.020Z,7.70
2022-09-23T05:31:28.396Z,7.70
2022-09-23T05:33:57.875Z,7.60
2022-09-23T05:36:26.361Z,7.60
2022-09-23T05:38:53.688Z,7.60
2022-09-23T05:41:23.317Z,7.50
2022-09-23T05:43:54.017Z,7.50
2022-09-23T05:46:27.935Z,7.50
2022-09-23T05:49:02.708Z,7.40
2022-09-23T05:51:38.189Z,7.40
2022-09-23T05:54:05.795Z,7.40
2022-09-23T05:56:34.459Z,7.40
2022-09-23T05:59:02.730Z,7.40
2022-09-23T06:01:35.477Z,7.30
2022-09-23T06:04:05.410Z,7.30
2022-09-23T06:06:38.503Z,7.20
2022-09-23T06:09:07.154Z,7.20
2022-09-23T06:11:35.650Z,7.20
2022-09-23T06:14:03.562Z,7.10
2022-09-23T06:16:33.265Z,7.00
2022-09-23T06:19:05.911Z,7.00
2022-09-23T06:21:35.909Z,7.00
2022-09-23T06:24:03.278Z,7.00
2022-09-23T06:26:33.720Z,7.00
2022-09-23T06:29:02.908Z,7.00
2022-09-23T06:31:30.745Z,7.00
2022-09-23T06:34:08.305Z,7.00
2022-09-23T06:36:43.736Z,7.00
2022-09-23T06:39:12.257Z,7.00
2022-09-23T06:41:39.622Z,7.10
2022-09-23T06:44:12.519Z,7.10
2022-09-23T06:46:39.649Z,7.20
2022-09-23T06:49:06.738Z,7.20
2022-09-23T06:51:34.561Z,7.30
2022-09-23T06:54:01.619Z,7.30
2022-09-23T06:56:28.779Z,7.40
2022-09-23T06:58:55.836Z,7.40
2022-09-23T07:01:23.527Z,7.50
2022-09-23T07:03:52.174Z,7.60
2022-09-23T07:06:20.072Z,7.70
2022-09-23T07:08:48.279Z,7.80
2022-09-23T07:11:19.434Z,7.90
2022-09-23T07:13:46.612Z,8.00
2022-09-23T07:16:14.284Z,8.10
2022-09-23T07:18:42.787Z,8.10
2022-09-23T07:21:15.969Z,8.30
2022-09-23T07:23:50.254Z,8.40
2022-09-23T07:26:19.549Z,8.50
2022-09-23T07:28:46.859Z,8.60
2022-09-23T07:31:27.724Z,8.80
2022-09-23T07:34:01.181Z,9.00
2022-09-23T07:36:32.894Z,9.10
2022-09-23T07:39:02.364Z,9.30
2022-09-23T07:41:31.585Z,9.50
2022-09-23T07:44:00.726Z,9.60
2022-09-23T07:46:30.697Z,9.80
2022-09-23T07:48:58.575Z,10.00
2022-09-23T07:51:34.721Z,10.20
2022-09-23T07:54:05.460Z,10.30
2022-09-23T07:56:33.452Z,10.60
2022-09-23T07:59:00.869Z,10.80
2022-09-23T08:01:33.355Z,11.00
2022-09-23T08:04:05.799Z,11.30
2022-09-23T08:06:33.706Z,11.50
2022-09-23T08:09:01.761Z,11.80
2022-09-23T08:11:29.207Z,12.10
2022-09-23T08:13:57.392Z,12.40
2022-09-23T08:16:24.486Z,12.70
2022-09-23T08:18:51.680Z,13.00
2022-09-23T08:21:22.551Z,13.30
2022-09-23T08:23:50.086Z,13.50
2022-09-23T08:26:21.498Z,13.80
2022-09-23T08:28:49.924Z,14.00
2022-09-23T08:31:17.085Z,14.10
2022-09-23T08:33:44.794Z,14.10
2022-09-23T08:36:13.043Z,14.20
2022-09-23T08:38:40.153Z,14.10
2022-09-23T08:41:31.721Z,14.10
2022-09-23T08:44:04.182Z,14.10
2022-09-23T08:46:40.274Z,14.00
2022-09-23T08:49:09.536Z,14.10
2022-09-23T08:51:46.378Z,14.10
2022-09-23T08:54:17.138Z,14.20
2022-09-23T08:56:51.425Z,14.30
2022-09-23T08:59:41.874Z,14.50
2022-09-23T09:02:18.999Z,14.70
2022-09-23T09:04:56.254Z,14.70
2022-09-23T09:07:38.082Z,14.70
2022-09-23T09:10:17.669Z,14.70
2022-09-23T09:12:49.953Z,14.70
2022-09-23T09:15:27.410Z,14.50
2022-09-23T09:17:59.359Z,14.40
2022-09-23T09:20:41.581Z,14.30
2022-09-23T09:23:11.893Z,14.30
2022-09-23T09:25:49.786Z,14.30
2022-09-23T09:28:31.186Z,14.20
2022-09-23T09:31:08.104Z,14.20
2022-09-23T09:34:17.982Z,14.20
2022-09-23T09:37:02.234Z,14.20
2022-09-23T09:39:32.171Z,14.10
2022-09-23T09:42:00.509Z,14.10
2022-09-23T09:45:11.178Z,14.00
2022-09-23T09:48:22.773Z,14.10
2022-09-23T09:50:52.272Z,14.00
2022-09-23T09:53:27.765Z,14.10
2022-09-23T09:56:07.195Z,14.10
2022-09-23T09:58:49.409Z,14.10
2022-09-23T10:01:31.897Z,14.10
2022-09-23T10:04:02.239Z,14.20
2022-09-23T10:06:34.123Z,14.20
2022-09-23T10:09:12.184Z,14.40
2022-09-23T10:11:40.568Z,14.70
2022-09-23T10:14:18.278Z,14.70
2022-09-23T10:16:48.988Z,14.80
2022-09-23T10:19:28.402Z,15.10
2022-09-23T10:22:00.304Z,15.20
2022-09-23T10:24:30.586Z,15.20
2022-09-23T10:27:09.541Z,15.20
2022-09-23T10:29:50.963Z,15.10
2022-09-23T10:32:32.895Z,15.00
2022-09-23T10:35:13.713Z,15.10
2022-09-23T10:37:55.197Z,15.30
2022-09-23T10:40:59.784Z,15.60
2022-09-23T10:44:03.082Z,15.70
2022-09-23T10:46:39.713Z,15.50
2022-09-23T10:49:18.896Z,15.80
2022-09-23T10:52:25.325Z,16.10
2022-09-23T10:55:12.947Z,16.30
2022-09-23T10:57:46.363Z,16.40
2022-09-23T11:00:51.938Z,16.40
2022-09-23T11:03:36.834Z,16.60
2022-09-23T11:06:06.702Z,16.70
2022-09-23T11:08:33.719Z,16.70
2022-09-23T11:11:24.138Z,16.60
2022-09-23T11:14:15.928Z,16.50
2022-09-23T11:17:15.515Z,16.50
2022-09-23T11:19:51.777Z,16.50
2022-09-23T11:22:38.170Z,16.50
2022-09-23T11:25:17.355Z,16.40
2022-09-23T11:27:59.689Z,16.40
2022-09-23T11:30:36.173Z,16.40
2022-09-23T11:33:04.637Z,16.40
2022-09-23T11:35:50.998Z,16.50
2022-09-23T11:38:26.202Z,16.40
2022-09-23T11:40:56.262Z,16.50
2022-09-23T11:43:33.995Z,16.60
2022-09-23T11:46:18.428Z,16.60
2022-09-23T11:48:58.752Z,16.60
2022-09-23T11:51:56.266Z,16.80
2022-09-23T11:54:28.239Z,16.90
2022-09-23T11:57:00.320Z,17.20
2022-09-23T11:59:41.159Z,17.30
2022-09-23T12:02:31.412Z,17.60
2022-09-23T12:05:16.697Z,17.80
2022-09-23T12:08:14.817Z,17.60
2022-09-23T12:10:48.881Z,17.30
2022-09-23T12:13:39.056Z,17.10
2022-09-23T12:16:33.664Z,16.70
2022-09-23T12:19:28.588Z,16.40
2022-09-23T12:22:14.290Z,16.30
2022-09-23T12:25:14.759Z,16.30
2022-09-23T12:27:48.215Z,16.60
2022-09-23T12:30:25.478Z,16.80
2022-09-23T12:32:54.335Z,16.80
2022-09-23T12:35:32.731Z,16.70
2022-09-23T12:38:01.407Z,16.50
2022-09-23T12:40:43.871Z,16.30
2022-09-23T12:43:35.622Z,16.30
2022-09-23T12:46:22.879Z,16.50
2022-09-23T12:48:59.203Z,16.90
2022-09-23T12:51:32.245Z,17.10
2022-09-23T12:54:05.484Z,17.10
2022-09-23T12:56:38.982Z,17.20
2022-09-23T12:59:29.515Z,17.20
2022-09-23T13:01:57.617Z,16.90
2022-09-23T13:05:12.493Z,16.60
2022-09-23T13:07:46.479Z,16.30
2022-09-23T13:10:28.365Z,16.20
2022-09-23T13:12:56.991Z,16.40
2022-09-23T13:15:30.750Z,16.40
2022-09-23T13:18:22.646Z,16.30
2022-09-23T13:20:54.116Z,16.30
2022-09-23T13:23:26.930Z,16.30
2022-09-23T13:25:59.614Z,16.20
2022-09-23T13:28:34.548Z,16.30
2022-09-23T13:31:15.681Z,16.10
2022-09-23T13:33:49.042Z,16.00
2022-09-23T13:36:21.214Z,15.90
2022-09-23T13:38:48.789Z,15.80
2022-09-23T13:41:20.531Z,15.70
2022-09-23T13:43:59.181Z,15.70
2022-09-23T13:46:30.089Z,15.70
2022-09-23T13:48:57.269Z,15.60
2022-09-23T13:51:33.341Z,15.60
2022-09-23T13:54:03.085Z,15.40
2022-09-23T13:56:33.215Z,15.20
2022-09-23T13:59:23.703Z,15.00
2022-09-23T14:01:50.989Z,14.90
2022-09-23T14:04:25.802Z,14.80
2022-09-23T14:06:54.384Z,14.70
2022-09-23T14:09:27.799Z,14.50
2022-09-23T14:11:58.405Z,14.40
2022-09-23T14:14:27.124Z,14.40
2022-09-23T14:16:54.990Z,14.30
2022-09-23T14:19:24.106Z,14.30
2022-09-23T14:21:55.693Z,14.30
2022-09-23T14:24:29.792Z,14.40
2022-09-23T14:27:06.851Z,14.50
2022-09-23T14:29:37.028Z,14.70
2022-09-23T14:32:21.305Z,14.70
2022-09-23T14:35:04.103Z,14.60
2022-09-23T14:37:58.954Z,14.60
2022-09-23T14:40:34.652Z,14.50
2022-09-23T14:43:27.669Z,14.30
2022-09-23T14:45:57.204Z,14.20
2022-09-23T14:48:33.573Z,14.10
2022-09-23T14:51:08.663Z,14.00
2022-09-23T14:53:41.545Z,13.90
2022-09-23T14:56:08.591Z,13.90
2022-09-23T14:58:51.914Z,13.90
2022-09-23T15:01:25.506Z,13.90
2022-09-23T15:03:54.424Z,13.80
2022-09-23T15:06:23.618Z,13.70
2022-09-23T15:08:52.778Z,13.60
2022-09-23T15:11:21.844Z,13.60
2022-09-23T15:13:53.144Z,13.60
2022-09-23T15:16:27.173Z,13.60
2022-09-23T15:18:56.703Z,13.70
2022-09-23T15:21:25.043Z,13.70
2022-09-23T15:23:56.599Z,13.50
2022-09-23T15:26:26.515Z,13.60
2022-09-23T15:28:56.107Z,13.70
2022-09-23T15:31:26.655Z,13.70
2022-09-23T15:33:54.026Z,13.70
2022-09-23T15:36:28.719Z,13.70
2022-09-23T15:39:01.239Z,13.60
2022-09-23T15:41:28.671Z,13.60
2022-09-23T15:43:56.572Z,13.50
2022-09-23T15:46:28.251Z,13.50
2022-09-23T15:49:16.218Z,13.40
2022-09-23T15:51:43.270Z,13.40
2022-09-23T15:54:12.715Z,13.40
2022-09-23T15:56:39.922Z,13.40
2022-09-23T15:59:07.012Z,13.30
2022-09-23T16:01:36.610Z,13.30
2022-09-23T16:04:04.606Z,13.30
2022-09-23T16:06:32.464Z,13.30
2022-09-23T16:08:59.764Z,13.20
2022-09-23T16:11:31.978Z,13.20
2022-09-23T16:14:00.802Z,13.20
2022-09-23T16:16:28.245Z,13.20
2022-09-23T16:18:55.523Z,13.20
2022-09-23T16:21:26.500Z,13.20
2022-09-23T16:23:55.350Z,13.10
2022-09-23T16:26:27.625Z,13.10
2022-09-23T16:28:56.201Z,13.10
2022-09-23T16:31:25.632Z,13.10
2022-09-23T16:33:53.735Z,13.10
2022-09-23T16:36:27.184Z,13.10
2022-09-23T16:38:57.925Z,13.00
2022-09-23T16:41:27.111Z,13.00
2022-09-23T16:43:54.176Z,13.00
2022-09-23T16:46:21.537Z,13.00
2022-09-23T16:48:52.690Z,13.00
2022-09-23T16:51:23.113Z,13.00
2022-09-23T16:53:51.577Z,12.90
2022-09-23T16:56:27.295Z,12.90
2022-09-23T16:58:56.112Z,12.90
2022-09-23T17:01:47.030Z,12.90
2022-09-23T17:04:15.872Z,12.90
2022-09-23T17:06:50.653Z,12.80
2022-09-23T17:09:20.046Z,12.80
2022-09-23T17:11:58.808Z,12.80
2022-09-23T17:14:26.125Z,12.80
2022-09-23T17:16:53.126Z,12.80
2022-09-23T17:19:20.211Z,12.80
2022-09-23T17:21:47.338Z,12.80
2022-09-23T17:24:14.399Z,12.70
2022-09-23T17:26:41.591Z,12.70
2022-09-23T17:29:10.270Z,12.60
2022-09-23T17:31:37.377Z,12.60
2022-09-23T17:34:04.536Z,12.60
2022-09-23T17:36:31.968Z,12.60
2022-09-23T17:38:59.305Z,12.60
2022-09-23T17:41:26.988Z,12.60
2022-09-23T17:43:56.741Z,12.60
2022-09-23T17:46:24.022Z,12.60
2022-09-23T17:48:55.776Z,12.50
2022-09-23T17:51:24.180Z,12.60
2022-09-23T17:53:51.602Z,12.50
2022-09-23T17:56:21.541Z,12.50
2022-09-23T17:58:49.770Z,12.50
2022-09-23T18:01:20.527Z,12.50
2022-09-23T18:03:48.482Z,12.40
2022-09-23T18:06:23.635Z,12.30
2022-09-23T18:08:51.593Z,12.30
2022-09-23T18:11:21.156Z,12.30
2022-09-23T18:13:54.146Z,12.30
2022-09-23T18:16:24.083Z,12.20
2022-09-23T18:18:53.247Z,12.20
2022-09-23T18:21:22.013Z,12.20
2022-09-23T18:23:49.297Z,12.20
2022-09-23T18:26:18.293Z,12.10
2022-09-23T18:28:45.448Z,12.10
2022-09-23T18:31:12.941Z,12.10
2022-09-23T18:33:40.704Z,12.10
2022-09-23T18:36:08.878Z,12.10
2022-09-23T18:38:36.008Z,12.10
2022-09-23T18:41:03.492Z,12.00
2022-09-23T18:43:37.477Z,12.00
2022-09-23T18:46:10.927Z,12.00
2022-09-23T18:48:56.532Z,12.00
2022-09-23T18:51:26.154Z,12.00
2022-09-23T18:53:57.696Z,12.00
2022-09-23T18:56:27.396Z,12.00
2022-09-23T18:58:55.522Z,11.90
2022-09-23T19:01:24.025Z,11.90
2022-09-23T19:03:55.657Z,11.80
2022-09-23T19:06:23.561Z,11.80
2022-09-23T19:08:52.628Z,11.80
2022-09-23T19:11:20.758Z,11.80
2022-09-23T19:13:54.248Z,11.80
2022-09-23T19:16:24.655Z,11.80
2022-09-23T19:18:52.266Z,11.70
2022-09-23T19:21:21.926Z,11.80
2022-09-23T19:23:55.373Z,11.70
2022-09-23T19:26:25.957Z,11.70
2022-09-23T19:28:54.733Z,11.70
2022-09-23T19:31:24.171Z,11.60
2022-09-23T19:33:56.899Z,11.60
2022-09-23T19:36:26.821Z,11.50
2022-09-23T19:38:58.733Z,11.50
2022-09-23T19:41:32.416Z,11.40
2022-09-23T19:44:03.837Z,11.40
2022-09-23T19:46:32.572Z,11.30
2022-09-23T19:49:00.570Z,11.30
2022-09-23T19:51:28.520Z,11.30
2022-09-23T19:53:55.564Z,11.30
2022-09-23T19:56:23.178Z,11.30
2022-09-23T19:58:54.325Z,11.30
2022-09-23T20:01:22.818Z,11.30
2022-09-23T20:03:50.205Z,11.20
2022-09-23T20:06:18.187Z,11.20
2022-09-23T20:08:46.133Z,11.10
2022-09-23T20:11:15.604Z,11.00
2022-09-23T20:13:47.226Z,11.00
2022-09-23T20:16:19.844Z,10.90
2022-09-23T20:18:51.933Z,10.90
2022-09-23T20:21:20.279Z,10.80
2022-09-23T20:23:47.419Z,10.80
2022-09-23T20:26:32.916Z,10.70
2022-09-23T20:29:01.475Z,10.60
2022-09-23T20:31:29.029Z,10.60
2022-09-23T20:34:00.390Z,10.50
2022-09-23T20:36:29.028Z,10.40
2022-09-23T20:38:57.250Z,10.40
2022-09-23T20:41:24.348Z,10.30
2022-09-23T20:43:55.345Z,10.20
2022-09-23T20:46:25.400Z,10.20
2022-09-23T20:48:54.166Z,10.10
2022-09-23T20:51:21.213Z,10.10
2022-09-23T20:53:53.030Z,10.00
2022-09-23T20:56:23.735Z,10.00
2022-09-23T20:58:52.726Z,10.00
2022-09-23T21:01:21.194Z,10.00
2022-09-23T21:03:51.462Z,10.00
2022-09-23T21:06:19.695Z,9.90
2022-09-23T21:08:46.989Z,9.80
2022-09-23T21:11:16.846Z,9.80
2022-09-23T21:13:49.266Z,9.70
2022-09-23T21:16:18.661Z,9.80
2022-09-23T21:18:45.951Z,9.70
2022-09-23T21:21:14.435Z,9.70
2022-09-23T21:23:43.485Z,9.70
2022-09-23T21:26:12.120Z,9.70
2022-09-23T21:28:41.484Z,9.70
2022-09-23T21:31:11.339Z,9.70
2022-09-23T21:33:38.661Z,9.70
2022-09-23T21:36:06.998Z,9.70
2022-09-23T21:38:37.910Z,9.60
2022-09-23T21:41:09.806Z,9.60
2022-09-23T21:43:38.958Z,9.60
2022-09-23T21:46:10.783Z,9.60
2022-09-23T21:48:41.269Z,9.50
2022-09-23T21:51:14.250Z,9.50
2022-09-23T21:53:43.373Z,9.50
2022-09-23T21:56:20.509Z,9.50
2022-09-23T21:58:51.722Z,9.50
2022-09-23T22:01:30.004Z,9.40
2022-09-23T22:04:02.269Z,9.40
2022-09-23T22:06:30.551Z,9.40
2022-09-23T22:09:00.563Z,9.40
2022-09-23T22:11:51.157Z,9.30
2022-09-23T22:14:19.968Z,9.30
2022-09-23T22:16:47.317Z,9.30
2022-09-23T22:19:15.703Z,9.30
2022-09-23T22:21:44.924Z,9.30
2022-09-23T22:24:12.847Z,9.30
2022-09-23T22:26:42.534Z,9.20
2022-09-23T22:29:30.505Z,9.20
2022-09-23T22:32:16.924Z,9.20
2022-09-23T22:34:51.644Z,9.20
2022-09-23T22:37:20.829Z,9.20
2022-09-23T22:39:47.865Z,9.20
2022-09-23T22:42:15.076Z,9.20
2022-09-23T22:44:42.760Z,9.20
2022-09-23T22:47:10.710Z,9.20
2022-09-23T22:49:37.718Z,9.20
2022-09-23T22:52:09.225Z,9.20
2022-09-23T22:54:36.499Z,9.20
2022-09-23T22:57:09.155Z,9.20
2022-09-23T22:59:37.667Z,9.20
2022-09-23T23:02:06.649Z,9.20
2022-09-23T23:04:33.991Z,9.20
2022-09-23T23:07:01.026Z,9.20
2022-09-23T23:09:28.059Z,9.20
2022-09-23T23:11:55.212Z,9.20
2022-09-23T23:14:22.560Z,9.10
2022-09-23T23:16:49.875Z,9.10
2022-09-23T23:19:17.669Z,9.10
2022-09-23T23:21:45.783Z,9.10
2022-09-23T23:24:19.392Z,9.00
2022-09-23T23:26:47.148Z,9.00
2022-09-23T23:29:16.090Z,9.00
2022-09-23T23:31:44.014Z,8.90
2022-09-23T23:34:16.626Z,9.00
2022-09-23T23:36:45.793Z,8.90
2022-09-23T23:39:13.859Z,8.90
2022-09-23T23:41:42.729Z,8.90
2022-09-23T23:44:12.555Z,8.80
2022-09-23T23:46:39.666Z,8.70
2022-09-23T23:49:06.949Z,8.70
2022-09-23T23:51:34.140Z,8.70
2022-09-23T23:54:01.244Z,8.70
2022-09-23T23:56:30.753Z,8.70
2022-09-23T23:59:02.696Z,8.70
